Kakushu Maru — JG5688 — position and weather

sailwx.info

Track history (hours):
 
Tides and Currents Weather Stations Pressure Air Temp Water Temp Dewpoint Dewpoint Depression Visibility Wind Speed Wind Dir Waves Ship Positions

Kakushu Maru

Last reported at 2014-Sep-02 17:32 UTC. Time now 2014-Sep-03 04:48 UTC.
Position N 36°06' E 141°06'.

Length 105 m; draft 6.6 m.

Type: Tanker. MMSI: 431101016.

Date/timePositionNaut miles runAvg speedWind from/ knotsBaromVisibWave heightAir tempDewpointWater temp
2014-Sep-02 17:32N 36°06' E 141°06'1312.6
2014-Sep-02 16:31N 35°53' E 141°03'1313.3
2014-Sep-02 15:33N 35°41' E 140°59'1413.0
2014-Sep-02 14:30N 35°29' E 140°50'1613.5
2014-Sep-02 13:19N 35°16' E 140°38'1213.8
2014-Sep-02 12:25N 35°07' E 140°29'1213.9
2014-Sep-02 11:34N 34°60' E 140°17'1615.1
2014-Sep-02 10:30N 34°51' E 140°01'1314.0
2014-Sep-02 09:33N 34°53' E 139°45'1313.3
2014-Sep-02 08:33N 35°06' E 139°44'1212.3
2014-Sep-02 07:33N 35°19' E 139°43'7 6.3
2014-Sep-02 06:31N 35°24' E 139°40'0 0.0
2014-Sep-02 05:31N 35°24' E 139°40'0 0.0
2014-Sep-02 04:31N 35°24' E 139°40'0 0.0
2014-Sep-02 03:31N 35°24' E 139°40'0 0.0
2014-Sep-02 02:31N 35°24' E 139°40'0 0.0
2014-Sep-02 01:31N 35°24' E 139°40'0 0.0
2014-Sep-02 00:31N 35°24' E 139°40'0 0.0
2014-Sep-01 23:31N 35°24' E 139°40'4 4.0
2014-Sep-01 22:32N 35°22' E 139°43'0 0.0
2014-Sep-01 21:32N 35°22' E 139°43'0 0.0
2014-Sep-01 20:32N 35°22' E 139°43'0 0.0
2014-Sep-01 19:32N 35°22' E 139°43'0 0.0
2014-Sep-01 18:32N 35°22' E 139°43'0 0.0
2014-Sep-01 17:32N 35°22' E 139°43'0 0.0
2014-Sep-01 16:32N 35°22' E 139°43'0 0.0
2014-Sep-01 15:32N 35°22' E 139°43'0 0.0
2014-Sep-01 14:32N 35°22' E 139°43'0 0.0
2014-Sep-01 13:32N 35°22' E 139°43'0 0.0
2014-Sep-01 12:32N 35°22' E 139°43'0 0.0
2014-Sep-01 11:32N 35°22' E 139°43'0 0.0
2014-Sep-01 10:32N 35°22' E 139°43'0 0.0
2014-Sep-01 09:32N 35°22' E 139°43'0 0.0
2014-Sep-01 08:32N 35°22' E 139°43'0 0.0
2014-Sep-01 07:32N 35°22' E 139°43'0 0.1
2014-Sep-01 06:32N 35°22' E 139°43'0 0.0
2014-Sep-01 05:32N 35°22' E 139°43'0 0.1
2014-Sep-01 04:32N 35°22' E 139°43'3 3.1
2014-Sep-01 03:34N 35°25' E 139°46'6 5.9
2014-Sep-01 02:31N 35°31' E 139°46'0 0.0
2014-Sep-01 01:19N 35°31' E 139°46'0 0.0
2014-Sep-01 00:31N 35°31' E 139°46'0 0.0
2014-Aug-31 23:31N 35°31' E 139°46'0 0.1
2014-Aug-31 22:31N 35°31' E 139°46'5 4.8
2014-Aug-31 21:33N 35°27' E 139°43'4 4.0
2014-Aug-31 20:33N 35°23' E 139°44'0 0.1
2014-Aug-31 19:33N 35°23' E 139°44'0 0.0
2014-Aug-31 18:33N 35°23' E 139°44'0 0.0
2014-Aug-31 17:33N 35°23' E 139°44'0 0.0
2014-Aug-31 16:33N 35°23' E 139°44'0 0.0
2014-Aug-31 15:33N 35°23' E 139°44'0 0.0
2014-Aug-31 14:33N 35°23' E 139°44'0 0.0
2014-Aug-31 13:30N 35°23' E 139°44'0 0.0
2014-Aug-31 12:33N 35°23' E 139°44'0 0.0
2014-Aug-31 11:33N 35°23' E 139°44'0 0.0
2014-Aug-31 10:33N 35°23' E 139°44'0 0.0
2014-Aug-31 09:33N 35°23' E 139°44'0 0.0
2014-Aug-31 08:33N 35°23' E 139°44'1 1.2
2014-Aug-31 07:33N 35°22' E 139°43'1211.7
2014-Aug-31 06:33N 35°10' E 139°46'1312.7
2014-Aug-31 05:33N 35°01' E 139°35'5613.5
2014-Aug-31 01:26N 34°32' E 138°37'183 4.9
2014-Aug-29 12:15N 34°06' E 134°58'1114.8
2014-Aug-29 11:32N 34°17' E 134°59'1313.6
2014-Aug-29 10:33N 34°27' E 135°09'1313.1
2014-Aug-29 09:33N 34°32' E 135°24'0 0.1
2014-Aug-29 01:30N 34°32' E 135°25'5 4.3
2014-Aug-29 00:21N 34°32' E 135°19'0 0.0
2014-Aug-28 23:15N 34°32' E 135°19'0 0.0
2014-Aug-28 22:27N 34°32' E 135°19'0 0.0
2014-Aug-28 21:21N 34°32' E 135°19'0 0.5
2014-Aug-28 20:33N 34°32' E 135°18'1413.5
2014-Aug-28 19:33N 34°36' E 135°02'  
Track history (hours):
 
Tides and Currents Weather Stations Pressure Air Temp Water Temp Dewpoint Dewpoint Depression Visibility Wind Speed Wind Dir Waves Ship Positions

Kakushu Maru

Last reported at 2014-Sep-02 17:32 UTC. Time now 2014-Sep-03 04:48 UTC.
Position N 36°06' E 141°06'.

Length 105 m; draft 6.6 m.

Type: Tanker. MMSI: 431101016.

Date/timePositionNaut miles runAvg speedWind from/ knotsBaromVisibWave heightAir tempDewpointWater temp
2014-Sep-02 17:32N 36°06' E 141°06'1312.6
2014-Sep-02 16:31N 35°53' E 141°03'1313.3
2014-Sep-02 15:33N 35°41' E 140°59'1413.0
2014-Sep-02 14:30N 35°29' E 140°50'1613.5
2014-Sep-02 13:19N 35°16' E 140°38'1213.8
2014-Sep-02 12:25N 35°07' E 140°29'1213.9
2014-Sep-02 11:34N 34°60' E 140°17'1615.1
2014-Sep-02 10:30N 34°51' E 140°01'1314.0
2014-Sep-02 09:33N 34°53' E 139°45'1313.3
2014-Sep-02 08:33N 35°06' E 139°44'1212.3
2014-Sep-02 07:33N 35°19' E 139°43'7 6.3
2014-Sep-02 06:31N 35°24' E 139°40'0 0.0
2014-Sep-02 05:31N 35°24' E 139°40'0 0.0
2014-Sep-02 04:31N 35°24' E 139°40'0 0.0
2014-Sep-02 03:31N 35°24' E 139°40'0 0.0
2014-Sep-02 02:31N 35°24' E 139°40'0 0.0
2014-Sep-02 01:31N 35°24' E 139°40'0 0.0
2014-Sep-02 00:31N 35°24' E 139°40'0 0.0
2014-Sep-01 23:31N 35°24' E 139°40'4 4.0
2014-Sep-01 22:32N 35°22' E 139°43'0 0.0
2014-Sep-01 21:32N 35°22' E 139°43'0 0.0
2014-Sep-01 20:32N 35°22' E 139°43'0 0.0
2014-Sep-01 19:32N 35°22' E 139°43'0 0.0
2014-Sep-01 18:32N 35°22' E 139°43'0 0.0
2014-Sep-01 17:32N 35°22' E 139°43'0 0.0
2014-Sep-01 16:32N 35°22' E 139°43'0 0.0
2014-Sep-01 15:32N 35°22' E 139°43'0 0.0
2014-Sep-01 14:32N 35°22' E 139°43'0 0.0
2014-Sep-01 13:32N 35°22' E 139°43'0 0.0
2014-Sep-01 12:32N 35°22' E 139°43'0 0.0
2014-Sep-01 11:32N 35°22' E 139°43'0 0.0
2014-Sep-01 10:32N 35°22' E 139°43'0 0.0
2014-Sep-01 09:32N 35°22' E 139°43'0 0.0
2014-Sep-01 08:32N 35°22' E 139°43'0 0.0
2014-Sep-01 07:32N 35°22' E 139°43'0 0.1
2014-Sep-01 06:32N 35°22' E 139°43'0 0.0
2014-Sep-01 05:32N 35°22' E 139°43'0 0.1
2014-Sep-01 04:32N 35°22' E 139°43'3 3.1
2014-Sep-01 03:34N 35°25' E 139°46'6 5.9
2014-Sep-01 02:31N 35°31' E 139°46'0 0.0
2014-Sep-01 01:19N 35°31' E 139°46'0 0.0
2014-Sep-01 00:31N 35°31' E 139°46'0 0.0
2014-Aug-31 23:31N 35°31' E 139°46'0 0.1
2014-Aug-31 22:31N 35°31' E 139°46'5 4.8
2014-Aug-31 21:33N 35°27' E 139°43'4 4.0
2014-Aug-31 20:33N 35°23' E 139°44'0 0.1
2014-Aug-31 19:33N 35°23' E 139°44'0 0.0
2014-Aug-31 18:33N 35°23' E 139°44'0 0.0
2014-Aug-31 17:33N 35°23' E 139°44'0 0.0
2014-Aug-31 16:33N 35°23' E 139°44'0 0.0
2014-Aug-31 15:33N 35°23' E 139°44'0 0.0
2014-Aug-31 14:33N 35°23' E 139°44'0 0.0
2014-Aug-31 13:30N 35°23' E 139°44'0 0.0
2014-Aug-31 12:33N 35°23' E 139°44'0 0.0
2014-Aug-31 11:33N 35°23' E 139°44'0 0.0
2014-Aug-31 10:33N 35°23' E 139°44'0 0.0
2014-Aug-31 09:33N 35°23' E 139°44'0 0.0
2014-Aug-31 08:33N 35°23' E 139°44'1 1.2
2014-Aug-31 07:33N 35°22' E 139°43'1211.7
2014-Aug-31 06:33N 35°10' E 139°46'1312.7
2014-Aug-31 05:33N 35°01' E 139°35'5613.5
2014-Aug-31 01:26N 34°32' E 138°37'183 4.9
2014-Aug-29 12:15N 34°06' E 134°58'1114.8
2014-Aug-29 11:32N 34°17' E 134°59'1313.6
2014-Aug-29 10:33N 34°27' E 135°09'1313.1
2014-Aug-29 09:33N 34°32' E 135°24'0 0.1
2014-Aug-29 01:30N 34°32' E 135°25'5 4.3
2014-Aug-29 00:21N 34°32' E 135°19'0 0.0
2014-Aug-28 23:15N 34°32' E 135°19'0 0.0
2014-Aug-28 22:27N 34°32' E 135°19'0 0.0
2014-Aug-28 21:21N 34°32' E 135°19'0 0.5
2014-Aug-28 20:33N 34°32' E 135°18'1413.5
2014-Aug-28 19:33N 34°36' E 135°02'  

Dump ship's entire track history